sensor_id;sensor_type;location;lat;lon;timestamp;P1;P2;P0
46044;PMS7003;31781;54.094;13.428;2022-11-15T04:03:09;43.00;37.67;23.33
46044;PMS7003;31781;54.094;13.428;2022-11-15T04:08:13;38.00;36.67;23.00
46044;PMS7003;31781;54.094;13.428;2022-11-15T04:13:16;45.00;38.67;22.67
46044;PMS7003;31781;54.094;13.428;2022-11-15T04:18:26;37.33;33.33;23.33
46044;PMS7003;31781;54.094;13.428;2022-11-15T04:23:47;37.00;34.67;22.00
46044;PMS7003;31781;54.094;13.428;2022-11-15T04:28:51;42.67;33.33;20.67
46044;PMS7003;31781;54.094;13.428;2022-11-15T04:33:54;33.00;30.00;16.67
46044;PMS7003;31781;54.094;13.428;2022-11-15T04:39:15;48.00;39.33;24.33
46044;PMS7003;31781;54.094;13.428;2022-11-15T04:44:19;29.33;26.00;17.00
46044;PMS7003;31781;54.094;13.428;2022-11-15T04:49:28;47.33;37.00;23.00
46044;PMS7003;31781;54.094;13.428;2022-11-15T04:54:52;15.67;13.67;1.00
46044;PMS7003;31781;54.094;13.428;2022-11-15T04:59:55;43.67;37.33;23.33
46044;PMS7003;31781;54.094;13.428;2022-11-15T05:04:58;40.00;32.33;20.00
46044;PMS7003;31781;54.094;13.428;2022-11-15T05:15:30;40.33;35.00;22.67
46044;PMS7003;31781;54.094;13.428;2022-11-15T05:20:33;37.33;35.00;22.67
46044;PMS7003;31781;54.094;13.428;2022-11-15T05:25:36;38.00;32.00;21.67
46044;PMS7003;31781;54.094;13.428;2022-11-15T05:36:02;41.00;34.67;22.67
46044;PMS7003;31781;54.094;13.428;2022-11-15T05:41:24;39.67;36.00;22.33
46044;PMS7003;31781;54.094;13.428;2022-11-15T05:46:33;36.00;36.00;22.67
46044;PMS7003;31781;54.094;13.428;2022-11-15T05:51:37;44.67;37.00;23.33
46044;PMS7003;31781;54.094;13.428;2022-11-15T05:56:46;35.00;33.00;22.33
46044;PMS7003;31781;54.094;13.428;2022-11-15T06:01:50;39.00;33.33;21.67
46044;PMS7003;31781;54.094;13.428;2022-11-15T06:06:53;36.00;32.33;18.00
46044;PMS7003;31781;54.094;13.428;2022-11-15T06:12:14;32.67;29.33;21.67
46044;PMS7003;31781;54.094;13.428;2022-11-15T06:17:20;34.67;34.33;21.33
46044;PMS7003;31781;54.094;13.428;2022-11-15T06:27:56;38.67;35.67;21.67
46044;PMS7003;31781;54.094;13.428;2022-11-15T06:33:00;29.67;29.67;18.00
46044;PMS7003;31781;54.094;13.428;2022-11-15T06:38:07;37.33;33.33;23.33
46044;PMS7003;31781;54.094;13.428;2022-11-15T06:43:20;49.33;40.00;26.33
46044;PMS7003;31781;54.094;13.428;2022-11-15T06:59:06;38.67;34.67;21.33
46044;PMS7003;31781;54.094;13.428;2022-11-15T07:04:27;40.33;34.33;22.00
46044;PMS7003;31781;54.094;13.428;2022-11-15T07:09:30;42.33;38.67;24.33
46044;PMS7003;31781;54.094;13.428;2022-11-15T07:14:54;38.67;36.67;24.33
46044;PMS7003;31781;54.094;13.428;2022-11-15T07:19:59;31.67;31.67;21.00
46044;PMS7003;31781;54.094;13.428;2022-11-15T07:25:05;36.00;33.67;21.33
46044;PMS7003;31781;54.094;13.428;2022-11-15T07:30:24;28.00;24.00;18.00
46044;PMS7003;31781;54.094;13.428;2022-11-15T07:35:41;37.00;33.00;19.33
46044;PMS7003;31781;54.094;13.428;2022-11-15T07:40:44;30.00;28.33;19.00
46044;PMS7003;31781;54.094;13.428;2022-11-15T07:45:55;41.00;36.67;20.67
46044;PMS7003;31781;54.094;13.428;2022-11-15T07:51:00;32.33;31.00;18.33
46044;PMS7003;31781;54.094;13.428;2022-11-15T07:56:23;28.33;27.00;21.00
46044;PMS7003;31781;54.094;13.428;2022-11-15T08:01:39;33.67;32.00;22.00
46044;PMS7003;31781;54.094;13.428;2022-11-15T08:07:05;35.33;31.67;19.67
46044;PMS7003;31781;54.094;13.428;2022-11-15T08:12:08;31.67;29.67;18.00
46044;PMS7003;31781;54.094;13.428;2022-11-15T08:17:11;36.00;26.67;18.00
46044;PMS7003;31781;54.094;13.428;2022-11-15T08:22:23;34.67;32.33;21.33
46044;PMS7003;31781;54.094;13.428;2022-11-15T08:27:26;40.67;36.67;22.33
46044;PMS7003;31781;54.094;13.428;2022-11-15T08:32:30;31.33;31.33;21.00
46044;PMS7003;31781;54.094;13.428;2022-11-15T08:37:39;35.00;33.00;20.33
46044;PMS7003;31781;54.094;13.428;2022-11-15T08:42:42;38.67;36.33;22.00
46044;PMS7003;31781;54.094;13.428;2022-11-15T08:47:47;32.00;30.00;18.67
46044;PMS7003;31781;54.094;13.428;2022-11-15T08:53:09;35.33;32.67;18.33
46044;PMS7003;31781;54.094;13.428;2022-11-15T08:58:13;40.33;35.00;19.67
46044;PMS7003;31781;54.094;13.428;2022-11-15T09:08:43;36.67;35.33;20.33
46044;PMS7003;31781;54.094;13.428;2022-11-15T09:13:48;25.75;24.00;19.75
46044;PMS7003;31781;54.094;13.428;2022-11-15T09:18:51;35.00;30.00;19.00
46044;PMS7003;31781;54.094;13.428;2022-11-15T09:24:00;30.00;27.33;17.00
46044;PMS7003;31781;54.094;13.428;2022-11-15T09:34:37;35.33;32.67;20.00
46044;PMS7003;31781;54.094;13.428;2022-11-15T09:39:52;31.25;31.25;21.50
46044;PMS7003;31781;54.094;13.428;2022-11-15T09:45:04;24.00;22.50;12.00
46044;PMS7003;31781;54.094;13.428;2022-11-15T09:50:36;30.25;29.25;18.25
46044;PMS7003;31781;54.094;13.428;2022-11-15T09:55:47;27.25;25.25;18.25
46044;PMS7003;31781;54.094;13.428;2022-11-15T10:01:14;36.25;30.50;19.50
46044;PMS7003;31781;54.094;13.428;2022-11-15T10:06:21;33.25;28.25;19.00
46044;PMS7003;31781;54.094;13.428;2022-11-15T10:11:27;27.00;26.25;19.75
46044;PMS7003;31781;54.094;13.428;2022-11-15T10:16:49;31.25;29.00;18.50
46044;PMS7003;31781;54.094;13.428;2022-11-15T10:22:08;27.25;26.50;17.25
46044;PMS7003;31781;54.094;13.428;2022-11-15T10:27:23;30.75;26.75;18.25
46044;PMS7003;31781;54.094;13.428;2022-11-15T10:32:34;26.25;23.50;17.75
46044;PMS7003;31781;54.094;13.428;2022-11-15T10:37:38;36.00;33.25;20.50
46044;PMS7003;31781;54.094;13.428;2022-11-15T10:42:41;34.50;33.25;18.25
46044;PMS7003;31781;54.094;13.428;2022-11-15T10:47:49;24.25;23.00;14.50
46044;PMS7003;31781;54.094;13.428;2022-11-15T10:53:10;28.75;26.00;18.00
46044;PMS7003;31781;54.094;13.428;2022-11-15T10:58:20;32.25;27.75;16.75
46044;PMS7003;31781;54.094;13.428;2022-11-15T11:03:38;31.75;30.50;20.00
46044;PMS7003;31781;54.094;13.428;2022-11-15T11:08:53;33.25;29.50;19.25
46044;PMS7003;31781;54.094;13.428;2022-11-15T11:14:01;30.50;28.25;17.50
46044;PMS7003;31781;54.094;13.428;2022-11-15T11:19:27;26.75;26.75;17.75
46044;PMS7003;31781;54.094;13.428;2022-11-15T11:25:02;32.75;28.75;18.50
46044;PMS7003;31781;54.094;13.428;2022-11-15T11:30:21;21.50;21.00;13.50
46044;PMS7003;31781;54.094;13.428;2022-11-15T11:35:32;34.75;30.00;18.25
46044;PMS7003;31781;54.094;13.428;2022-11-15T11:40:50;29.25;29.25;19.00
46044;PMS7003;31781;54.094;13.428;2022-11-15T11:51:56;31.75;26.50;13.75
46044;PMS7003;31781;54.094;13.428;2022-11-15T11:57:07;29.00;26.50;18.25
46044;PMS7003;31781;54.094;13.428;2022-11-15T12:02:21;26.75;25.75;17.00
46044;PMS7003;31781;54.094;13.428;2022-11-15T12:07:36;31.25;31.25;22.00
46044;PMS7003;31781;54.094;13.428;2022-11-15T12:12:44;26.50;22.00;16.00
46044;PMS7003;31781;54.094;13.428;2022-11-15T12:17:55;32.25;28.25;18.25
46044;PMS7003;31781;54.094;13.428;2022-11-15T12:23:04;26.50;26.50;20.50
46044;PMS7003;31781;54.094;13.428;2022-11-15T12:28:15;27.25;25.75;18.00
46044;PMS7003;31781;54.094;13.428;2022-11-15T12:33:35;32.00;29.25;19.75
46044;PMS7003;31781;54.094;13.428;2022-11-15T12:38:56;29.25;26.50;18.25
46044;PMS7003;31781;54.094;13.428;2022-11-15T12:44:02;39.33;35.33;21.00
46044;PMS7003;31781;54.094;13.428;2022-11-15T12:49:08;36.67;33.67;20.00
46044;PMS7003;31781;54.094;13.428;2022-11-15T13:06:05;37.33;35.67;20.00
46044;PMS7003;31781;54.094;13.428;2022-11-15T13:11:49;32.25;32.25;18.75
46044;PMS7003;31781;54.094;13.428;2022-11-15T13:22:44;45.75;37.25;24.00
46044;PMS7003;31781;54.094;13.428;2022-11-15T13:27:48;33.00;28.00;22.50
46044;PMS7003;31781;54.094;13.428;2022-11-15T13:32:57;35.75;32.50;20.25
46044;PMS7003;31781;54.094;13.428;2022-11-15T13:38:03;36.25;34.75;19.75
46044;PMS7003;31781;54.094;13.428;2022-11-15T13:43:15;30.67;30.67;21.33
46044;PMS7003;31781;54.094;13.428;2022-11-15T13:48:45;37.33;35.00;23.33
46044;PMS7003;31781;54.094;13.428;2022-11-15T13:53:50;52.00;42.67;28.00
46044;PMS7003;31781;54.094;13.428;2022-11-15T13:58:57;51.67;45.33;31.33
46044;PMS7003;31781;54.094;13.428;2022-11-15T14:09:44;61.33;49.33;32.67
46044;PMS7003;31781;54.094;13.428;2022-11-15T14:14:48;57.33;47.67;33.00
46044;PMS7003;31781;54.094;13.428;2022-11-15T14:19:52;63.00;51.00;37.00
46044;PMS7003;31781;54.094;13.428;2022-11-15T14:30:29;58.00;48.00;34.00
46044;PMS7003;31781;54.094;13.428;2022-11-15T14:35:33;49.00;42.33;32.67
46044;PMS7003;31781;54.094;13.428;2022-11-15T14:40:40;54.33;44.00;32.33
46044;PMS7003;31781;54.094;13.428;2022-11-15T14:45:52;53.00;45.33;33.33
46044;PMS7003;31781;54.094;13.428;2022-11-15T14:56:31;41.00;37.67;28.00
46044;PMS7003;31781;54.094;13.428;2022-11-15T15:01:34;43.00;36.67;27.00
46044;PMS7003;31781;54.094;13.428;2022-11-15T15:06:37;40.67;35.67;24.00
46044;PMS7003;31781;54.094;13.428;2022-11-15T15:11:46;35.67;32.33;21.33
46044;PMS7003;31781;54.094;13.428;2022-11-15T15:16:50;35.33;30.33;19.33
46044;PMS7003;31781;54.094;13.428;2022-11-15T15:27:21;38.33;34.33;23.33
46044;PMS7003;31781;54.094;13.428;2022-11-15T15:32:44;34.00;32.67;20.33
46044;PMS7003;31781;54.094;13.428;2022-11-15T15:37:47;29.67;27.00;16.67
46044;PMS7003;31781;54.094;13.428;2022-11-15T15:42:51;38.33;31.00;20.00
46044;PMS7003;31781;54.094;13.428;2022-11-15T15:48:00;36.67;30.00;18.33
46044;PMS7003;31781;54.094;13.428;2022-11-15T15:53:03;30.33;27.67;16.67
46044;PMS7003;31781;54.094;13.428;2022-11-15T16:03:34;35.33;29.00;18.33
46044;PMS7003;31781;54.094;13.428;2022-11-15T16:08:40;37.33;35.67;21.00
46044;PMS7003;31781;54.094;13.428;2022-11-15T16:14:06;43.67;36.00;22.00
46044;PMS7003;31781;54.094;13.428;2022-11-15T16:19:17;39.00;34.33;22.33
46044;PMS7003;31781;54.094;13.428;2022-11-15T16:24:20;44.33;34.67;24.33
46044;PMS7003;31781;54.094;13.428;2022-11-15T16:29:25;53.00;41.00;28.00
46044;PMS7003;31781;54.094;13.428;2022-11-15T16:34:36;51.00;44.67;32.67
46044;PMS7003;31781;54.094;13.428;2022-11-15T16:39:59;59.67;49.33;34.33
46044;PMS7003;31781;54.094;13.428;2022-11-15T16:45:02;61.67;51.33;36.33
46044;PMS7003;31781;54.094;13.428;2022-11-15T16:50:05;60.67;50.33;37.33
46044;PMS7003;31781;54.094;13.428;2022-11-15T16:55:28;67.00;55.00;40.00
46044;PMS7003;31781;54.094;13.428;2022-11-15T17:00:32;69.67;55.00;40.00
46044;PMS7003;31781;54.094;13.428;2022-11-15T17:05:35;65.33;53.00;39.00
46044;PMS7003;31781;54.094;13.428;2022-11-15T17:10:43;61.67;52.33;38.33
46044;PMS7003;31781;54.094;13.428;2022-11-15T17:15:49;61.33;50.67;37.67
46044;PMS7003;31781;54.094;13.428;2022-11-15T17:21:05;60.67;50.33;37.67
46044;PMS7003;31781;54.094;13.428;2022-11-15T17:26:15;62.67;51.00;36.67
46044;PMS7003;31781;54.094;13.428;2022-11-15T17:31:31;57.67;48.33;36.67
46044;PMS7003;31781;54.094;13.428;2022-11-15T17:36:36;61.33;52.00;37.67
46044;PMS7003;31781;54.094;13.428;2022-11-15T17:41:45;60.67;49.67;36.00
46044;PMS7003;31781;54.094;13.428;2022-11-15T17:46:48;63.00;51.00;37.67
46044;PMS7003;31781;54.094;13.428;2022-11-15T17:51:52;63.33;51.33;38.67
46044;PMS7003;31781;54.094;13.428;2022-11-15T17:57:01;58.67;50.33;37.67
46044;PMS7003;31781;54.094;13.428;2022-11-15T18:02:03;65.00;54.67;41.00
46044;PMS7003;31781;54.094;13.428;2022-11-15T18:07:06;65.33;50.67;38.67
46044;PMS7003;31781;54.094;13.428;2022-11-15T18:12:14;68.67;53.00;39.33
46044;PMS7003;31781;54.094;13.428;2022-11-15T18:17:20;54.33;45.33;34.67
46044;PMS7003;31781;54.094;13.428;2022-11-15T18:22:23;64.33;51.33;38.00
46044;PMS7003;31781;54.094;13.428;2022-11-15T18:27:33;64.00;53.67;37.67
46044;PMS7003;31781;54.094;13.428;2022-11-15T18:32:37;60.33;51.33;37.00
46044;PMS7003;31781;54.094;13.428;2022-11-15T18:37:41;61.00;50.67;37.33
46044;PMS7003;31781;54.094;13.428;2022-11-15T18:42:50;55.33;47.00;35.33
46044;PMS7003;31781;54.094;13.428;2022-11-15T18:48:18;58.33;48.33;35.67
46044;PMS7003;31781;54.094;13.428;2022-11-15T18:53:24;52.00;45.33;34.67
46044;PMS7003;31781;54.094;13.428;2022-11-15T18:58:30;48.67;42.00;33.00
46044;PMS7003;31781;54.094;13.428;2022-11-15T19:08:54;40.33;36.67;28.67
46044;PMS7003;31781;54.094;13.428;2022-11-15T19:24:42;31.00;29.33;21.00
46044;PMS7003;31781;54.094;13.428;2022-11-15T19:29:45;31.67;31.67;21.67
46044;PMS7003;31781;54.094;13.428;2022-11-15T19:35:09;24.33;21.00;19.33
46044;PMS7003;31781;54.094;13.428;2022-11-15T19:40:14;34.00;33.67;23.00
46044;PMS7003;31781;54.094;13.428;2022-11-15T19:45:19;33.33;24.33;19.67
46044;PMS7003;31781;54.094;13.428;2022-11-15T19:56:01;37.67;35.00;24.00
46044;PMS7003;31781;54.094;13.428;2022-11-15T20:01:07;35.67;34.67;22.00
46044;PMS7003;31781;54.094;13.428;2022-11-15T20:06:21;31.33;27.67;19.67
46044;PMS7003;31781;54.094;13.428;2022-11-15T20:11:33;34.67;30.67;21.00
46044;PMS7003;31781;54.094;13.428;2022-11-15T20:16:36;29.33;28.00;19.00
46044;PMS7003;31781;54.094;13.428;2022-11-15T20:21:57;33.00;30.00;21.67
46044;PMS7003;31781;54.094;13.428;2022-11-15T20:27:06;28.67;28.67;20.67
46044;PMS7003;31781;54.094;13.428;2022-11-15T20:32:09;30.00;29.67;22.00
46044;PMS7003;31781;54.094;13.428;2022-11-15T20:37:18;26.67;21.33;15.00
46044;PMS7003;31781;54.094;13.428;2022-11-15T20:42:20;24.33;24.00;18.33
46044;PMS7003;31781;54.094;13.428;2022-11-15T20:47:23;30.00;24.00;16.33
46044;PMS7003;31781;54.094;13.428;2022-11-15T20:52:42;23.00;19.67;14.33
46044;PMS7003;31781;54.094;13.428;2022-11-15T20:57:48;21.67;20.00;11.33
46044;PMS7003;31781;54.094;13.428;2022-11-15T21:02:51;17.33;17.33;8.67
46044;PMS7003;31781;54.094;13.428;2022-11-15T21:08:02;15.00;14.33;9.33
46044;PMS7003;31781;54.094;13.428;2022-11-15T21:18:28;12.33;12.33;10.33
46044;PMS7003;31781;54.094;13.428;2022-11-15T21:23:32;23.00;22.00;14.00
46044;PMS7003;31781;54.094;13.428;2022-11-15T21:28:35;25.00;23.00;19.33
46044;PMS7003;31781;54.094;13.428;2022-11-15T21:33:44;25.67;25.67;20.67
46044;PMS7003;31781;54.094;13.428;2022-11-15T21:38:47;33.00;32.67;24.00
46044;PMS7003;31781;54.094;13.428;2022-11-15T21:43:55;38.00;32.33;25.67
46044;PMS7003;31781;54.094;13.428;2022-11-15T21:49:06;31.33;31.00;28.00
46044;PMS7003;31781;54.094;13.428;2022-11-15T21:59:33;35.00;34.00;28.33
46044;PMS7003;31781;54.094;13.428;2022-11-15T22:04:36;38.67;35.33;28.00
46044;PMS7003;31781;54.094;13.428;2022-11-15T22:09:39;46.67;41.33;32.00
46044;PMS7003;31781;54.094;13.428;2022-11-15T22:15:00;45.00;40.33;32.33
46044;PMS7003;31781;54.094;13.428;2022-11-15T22:20:06;50.67;44.33;35.00
46044;PMS7003;31781;54.094;13.428;2022-11-15T22:25:36;58.33;48.67;39.00
46044;PMS7003;31781;54.094;13.428;2022-11-15T22:30:45;61.33;51.67;40.00
46044;PMS7003;31781;54.094;13.428;2022-11-15T22:35:49;56.33;48.67;38.33
46044;PMS7003;31781;54.094;13.428;2022-11-15T22:40:52;47.33;42.67;33.67
46044;PMS7003;31781;54.094;13.428;2022-11-15T22:46:03;32.67;32.33;26.00
46044;PMS7003;31781;54.094;13.428;2022-11-15T22:51:08;28.00;27.33;20.67
46044;PMS7003;31781;54.094;13.428;2022-11-15T22:56:12;18.67;18.67;15.00
46044;PMS7003;31781;54.094;13.428;2022-11-15T23:01:26;10.00;10.00;7.67
46044;PMS7003;31781;54.094;13.428;2022-11-15T23:06:29;19.33;19.33;14.67
46044;PMS7003;31781;54.094;13.428;2022-11-15T23:11:32;18.67;16.67;12.00
46044;PMS7003;31781;54.094;13.428;2022-11-15T23:16:40;17.33;16.00;13.00
46044;PMS7003;31781;54.094;13.428;2022-11-15T23:21:43;13.67;13.67;9.67
46044;PMS7003;31781;54.094;13.428;2022-11-15T23:26:49;15.50;14.25;10.00
46044;PMS7003;31781;54.094;13.428;2022-11-15T23:32:14;13.25;13.25;10.00
46044;PMS7003;31781;54.094;13.428;2022-11-15T23:37:18;14.75;13.75;9.50
46044;PMS7003;31781;54.094;13.428;2022-11-15T23:42:21;15.50;14.75;9.25
46044;PMS7003;31781;54.094;13.428;2022-11-15T23:47:33;12.50;11.25;7.75
46044;PMS7003;31781;54.094;13.428;2022-11-15T23:52:53;15.00;15.00;10.50
46044;PMS7003;31781;54.094;13.428;2022-11-15T23:57:56;15.00;15.00;12.00
